createdAt,value
2022-11-21T00:02:00.429Z,44.83
2022-11-21T00:07:01.921Z,43.97
2022-11-21T00:12:03.482Z,42.03
2022-11-21T00:17:04.873Z,46.22
2022-11-21T00:22:06.381Z,56.70
2022-11-21T00:27:07.782Z,63.63
2022-11-21T00:32:09.199Z,89.30
2022-11-21T00:37:10.616Z,84.78
2022-11-21T00:42:12.049Z,56.33
2022-11-21T00:47:13.451Z,41.78
2022-11-21T00:52:16.032Z,34.60
2022-11-21T00:57:17.459Z,29.33
2022-11-21T01:02:18.956Z,29.95
2022-11-21T01:07:20.500Z,30.13
2022-11-21T01:12:22.337Z,29.75
2022-11-21T01:17:23.760Z,29.25
2022-11-21T01:22:25.226Z,30.25
2022-11-21T01:27:26.623Z,28.02
2022-11-21T01:32:28.031Z,28.55
2022-11-21T01:37:29.660Z,26.98
2022-11-21T01:42:48.977Z,28.83
2022-11-21T01:47:50.615Z,27.95
2022-11-21T01:52:52.016Z,30.85
2022-11-21T01:57:53.426Z,30.48
2022-11-21T02:03:02.276Z,29.52
2022-11-21T02:08:12.662Z,28.73
2022-11-21T02:13:14.296Z,28.15
2022-11-21T02:18:15.696Z,28.42
2022-11-21T02:23:31.986Z,27.33
2022-11-21T02:28:33.809Z,26.67
2022-11-21T02:33:35.399Z,26.42
2022-11-21T02:38:38.780Z,25.75
2022-11-21T02:43:47.854Z,26.40
2022-11-21T02:48:49.409Z,25.48
2022-11-21T02:53:50.805Z,24.75
2022-11-21T02:58:52.225Z,22.30
2022-11-21T03:03:53.628Z,22.73
2022-11-21T03:08:55.081Z,21.20
2022-11-21T03:13:56.490Z,21.73
2022-11-21T03:18:58.088Z,21.58
2022-11-21T03:23:59.494Z,21.83
2022-11-21T03:29:01.029Z,19.63
2022-11-21T03:34:02.621Z,20.60
2022-11-21T03:39:04.517Z,19.83
2022-11-21T03:44:08.795Z,21.45
2022-11-21T03:49:11.163Z,21.48
2022-11-21T03:54:12.647Z,21.45
2022-11-21T03:59:14.047Z,24.17
2022-11-21T04:04:15.462Z,22.40
2022-11-21T04:09:16.884Z,21.92
2022-11-21T04:14:18.287Z,22.98
2022-11-21T04:19:19.775Z,21.45
2022-11-21T04:24:21.187Z,21.63
2022-11-21T04:29:22.649Z,22.70
2022-11-21T04:34:24.092Z,22.67
2022-11-21T04:39:25.535Z,22.42
2022-11-21T04:44:28.597Z,21.95
2022-11-21T04:49:30.214Z,24.23
2022-11-21T04:54:33.231Z,23.23
2022-11-21T04:59:34.629Z,24.48
2022-11-21T05:04:36.039Z,23.95
2022-11-21T05:09:37.495Z,23.92
2022-11-21T05:14:38.901Z,22.73
2022-11-21T05:19:40.304Z,22.52
2022-11-21T05:24:41.704Z,21.92
2022-11-21T05:29:43.208Z,21.98
2022-11-21T05:34:44.652Z,20.92
2022-11-21T05:39:46.046Z,21.67
2022-11-21T05:44:47.446Z,20.52
2022-11-21T05:49:48.876Z,21.70
2022-11-21T05:54:50.287Z,21.38
2022-11-21T05:59:51.806Z,21.95
2022-11-21T06:04:53.251Z,20.95
2022-11-21T06:09:54.687Z,18.70
2022-11-21T06:14:56.084Z,19.38
2022-11-21T06:19:57.574Z,20.52
2022-11-21T06:24:59.000Z,21.67
2022-11-21T06:30:00.415Z,21.40
2022-11-21T06:35:01.810Z,21.40
2022-11-21T06:40:03.439Z,20.25
2022-11-21T06:45:05.339Z,22.52
2022-11-21T06:50:07.748Z,25.83
2022-11-21T06:55:10.750Z,23.83
2022-11-21T07:00:12.815Z,21.80
2022-11-21T07:05:14.365Z,20.88
2022-11-21T07:10:15.862Z,20.88
2022-11-21T07:15:17.281Z,19.58
2022-11-21T07:20:18.877Z,17.98
2022-11-21T07:25:20.281Z,21.38
2022-11-21T07:30:21.706Z,21.08
2022-11-21T07:35:23.536Z,20.15
2022-11-21T07:40:25.274Z,19.58
2022-11-21T07:45:26.704Z,18.25
2022-11-21T07:50:28.426Z,18.30
2022-11-21T07:55:30.426Z,17.75
2022-11-21T08:00:33.896Z,16.73
2022-11-21T08:05:42.836Z,16.60
2022-11-21T08:10:45.699Z,16.67
2022-11-21T08:15:47.174Z,15.70
2022-11-21T08:20:48.598Z,15.65
2022-11-21T08:25:51.872Z,15.45
2022-11-21T08:30:53.606Z,13.90
2022-11-21T08:35:55.083Z,13.85
2022-11-21T08:41:17.762Z,14.07
2022-11-21T08:46:19.424Z,13.00
2022-11-21T08:51:21.818Z,12.40
2022-11-21T08:56:23.379Z,11.95
2022-11-21T09:01:24.827Z,10.32
2022-11-21T09:06:26.371Z,12.43
2022-11-21T09:11:27.884Z,12.55
2022-11-21T09:16:47.762Z,13.32
2022-11-21T09:21:50.111Z,12.63
2022-11-21T09:26:51.638Z,11.52
2022-11-21T09:31:53.058Z,11.95
2022-11-21T09:36:55.549Z,11.15
2022-11-21T09:42:09.023Z,11.23
2022-11-21T09:47:21.552Z,10.90
2022-11-21T09:52:27.989Z,12.63
2022-11-21T09:57:34.637Z,25.65
2022-11-21T10:02:36.921Z,39.67
2022-11-21T10:07:38.639Z,13.50
2022-11-21T10:13:43.362Z,10.55
2022-11-21T10:18:55.533Z,9.73
2022-11-21T10:24:07.574Z,9.13
2022-11-21T10:29:19.255Z,9.07
2022-11-21T10:34:24.290Z,9.30
2022-11-21T10:39:50.928Z,13.52
2022-11-21T10:45:11.092Z,14.23
2022-11-21T10:50:25.156Z,12.50
2022-11-21T10:55:26.613Z,9.18
2022-11-21T11:00:28.104Z,7.68
2022-11-21T11:05:33.801Z,7.30
2022-11-21T11:10:38.577Z,7.82
2022-11-21T11:15:54.216Z,9.52
2022-11-21T11:21:20.480Z,9.27
2022-11-21T11:26:28.201Z,11.13
2022-11-21T11:31:40.294Z,9.68
2022-11-21T11:36:56.471Z,10.93
2022-11-21T11:42:32.066Z,8.40
2022-11-21T11:47:43.274Z,8.13
2022-11-21T11:53:04.229Z,11.55
2022-11-21T11:58:12.237Z,13.32
2022-11-21T12:03:59.051Z,17.23
2022-11-21T12:09:28.280Z,13.23
2022-11-21T12:15:08.495Z,8.35
2022-11-21T12:20:22.835Z,7.38
2022-11-21T12:25:34.931Z,9.48
2022-11-21T12:30:54.590Z,8.10
2022-11-21T12:36:18.449Z,8.80
2022-11-21T12:41:51.369Z,9.18
2022-11-21T12:47:11.964Z,9.75
2022-11-21T12:52:39.843Z,10.15
2022-11-21T12:58:04.985Z,11.65
2022-11-21T13:03:33.870Z,11.77
2022-11-21T13:08:36.972Z,12.23
2022-11-21T13:13:43.907Z,11.70
2022-11-21T13:18:48.365Z,9.85
2022-11-21T13:23:49.796Z,11.25
2022-11-21T13:29:06.918Z,9.38
2022-11-21T13:34:37.353Z,9.40
2022-11-21T13:39:38.928Z,10.18
2022-11-21T13:44:41.326Z,10.18
2022-11-21T13:50:05.047Z,9.13
2022-11-21T13:55:33.778Z,10.10
2022-11-21T14:01:12.468Z,8.53
2022-11-21T14:06:33.815Z,7.47
2022-11-21T14:11:49.527Z,8.98
2022-11-21T14:16:59.296Z,9.10
2022-11-21T14:22:01.149Z,9.10
2022-11-21T14:27:06.819Z,9.30
2022-11-21T14:32:15.178Z,10.32
2022-11-21T14:37:16.846Z,12.70
2022-11-21T14:42:18.490Z,12.43
2022-11-21T14:47:26.290Z,12.43
2022-11-21T14:52:31.751Z,14.55
2022-11-21T14:57:37.810Z,13.98
2022-11-21T15:02:39.754Z,12.45
2022-11-21T15:07:44.182Z,10.93
2022-11-21T15:12:48.753Z,12.48
2022-11-21T15:18:25.987Z,11.23
2022-11-21T15:23:40.279Z,15.70
2022-11-21T15:28:54.883Z,14.10
2022-11-21T15:39:28.038Z,16.23
2022-11-21T15:44:29.908Z,16.95
2022-11-21T15:49:33.228Z,14.02
2022-11-21T15:54:35.195Z,13.88
2022-11-21T15:57:15.754Z,17.05
2022-11-21T15:59:36.767Z,10.82
2022-11-21T16:04:38.376Z,13.02
2022-11-21T16:09:40.979Z,11.77
2022-11-21T16:14:42.565Z,12.50
2022-11-21T16:19:45.613Z,13.30
2022-11-21T16:24:47.240Z,14.48
2022-11-21T16:29:48.875Z,14.20
2022-11-21T16:34:51.663Z,14.15
2022-11-21T16:39:53.211Z,13.32
2022-11-21T16:44:54.759Z,12.60
2022-11-21T16:49:56.539Z,12.13
2022-11-21T16:54:58.163Z,10.02
2022-11-21T17:00:00.687Z,11.27
2022-11-21T17:05:02.451Z,9.02
2022-11-21T17:10:04.367Z,8.93
2022-11-21T17:15:09.111Z,9.23
2022-11-21T17:20:10.977Z,10.15
2022-11-21T17:25:12.884Z,10.95
2022-11-21T17:30:15.889Z,11.50
2022-11-21T17:35:17.536Z,11.50
2022-11-21T17:40:19.092Z,11.07
2022-11-21T17:45:20.657Z,11.35
2022-11-21T17:50:22.331Z,16.95
2022-11-21T17:55:23.894Z,17.13
2022-11-21T18:00:25.438Z,19.27
2022-11-21T18:05:26.988Z,23.38
2022-11-21T18:10:42.642Z,14.85
2022-11-21T18:15:45.198Z,11.88
2022-11-21T18:20:46.957Z,11.02
2022-11-21T18:25:48.499Z,11.82
2022-11-21T18:30:50.089Z,11.85
2022-11-21T18:35:51.622Z,11.18
2022-11-21T18:40:53.195Z,10.38
2022-11-21T18:45:54.739Z,10.35
2022-11-21T18:50:56.747Z,10.65
2022-11-21T18:55:59.248Z,10.60
2022-11-21T19:01:02.276Z,10.80
2022-11-21T19:06:07.774Z,12.07
2022-11-21T19:11:11.841Z,11.35
2022-11-21T19:16:16.661Z,11.10
2022-11-21T19:21:18.389Z,11.43
2022-11-21T19:26:22.677Z,11.45
2022-11-21T19:31:24.683Z,10.65
2022-11-21T19:36:27.062Z,10.65
2022-11-21T19:41:31.046Z,11.35
2022-11-21T19:46:35.456Z,9.43
2022-11-21T19:51:41.922Z,10.13
2022-11-21T19:56:43.589Z,9.93
2022-11-21T20:01:49.617Z,10.48
2022-11-21T20:06:54.956Z,11.00
2022-11-21T20:11:56.591Z,12.07
2022-11-21T20:16:58.178Z,13.20
2022-11-21T20:22:00.172Z,14.43
2022-11-21T20:27:01.825Z,11.73
2022-11-21T20:32:03.915Z,14.30
2022-11-21T20:37:05.714Z,14.65
2022-11-21T20:42:08.297Z,14.32
2022-11-21T20:47:10.082Z,16.00
2022-11-21T20:57:33.263Z,16.48
2022-11-21T21:02:34.822Z,16.05
2022-11-21T21:07:36.581Z,16.30
2022-11-21T21:12:38.579Z,16.13
2022-11-21T21:17:40.136Z,20.95
2022-11-21T21:22:41.847Z,29.42
2022-11-21T21:27:43.458Z,44.58
2022-11-21T21:32:45.601Z,21.83
2022-11-21T21:37:48.385Z,31.83
2022-11-21T21:42:50.020Z,29.25
2022-11-21T21:47:51.587Z,26.27
2022-11-21T21:52:53.176Z,24.13
2022-11-21T21:57:55.919Z,24.77
2022-11-21T22:02:57.470Z,21.48
2022-11-21T22:07:59.675Z,18.80
2022-11-21T22:13:01.210Z,20.63
2022-11-21T22:18:02.795Z,16.13
2022-11-21T22:23:04.374Z,19.83
2022-11-21T22:28:06.093Z,19.50
2022-11-21T22:33:07.845Z,20.23
2022-11-21T22:38:09.439Z,19.33
2022-11-21T22:43:11.075Z,19.55
2022-11-21T22:48:14.439Z,18.00
2022-11-21T22:53:16.022Z,17.85
2022-11-21T22:58:17.572Z,19.65
2022-11-21T23:03:19.172Z,21.02
2022-11-21T23:08:20.710Z,20.17
2022-11-21T23:13:22.304Z,19.88
2022-11-21T23:18:23.916Z,17.92
2022-11-21T23:23:25.574Z,18.17
2022-11-21T23:28:28.522Z,20.08
2022-11-21T23:33:30.091Z,18.73
2022-11-21T23:38:31.925Z,19.95
2022-11-21T23:43:33.854Z,19.60
2022-11-21T23:48:35.558Z,19.38
2022-11-21T23:53:37.133Z,17.27
2022-11-21T23:58:39.490Z,18.38
